createdAt,value
2018-05-18T00:01:20.343Z,1019.37
2018-05-18T00:02:47.650Z,1019.32
2018-05-18T00:04:14.979Z,1019.27
2018-05-18T00:05:42.250Z,1019.29
2018-05-18T00:07:10.021Z,1019.32
2018-05-18T00:08:37.212Z,1019.34
2018-05-18T00:10:04.562Z,1019.37
2018-05-18T00:11:31.986Z,1019.37
2018-05-18T00:12:59.600Z,1019.32
2018-05-18T00:14:27.193Z,1019.26
2018-05-18T00:15:54.391Z,1019.22
2018-05-18T00:17:21.839Z,1019.21
2018-05-18T00:18:49.160Z,1019.22
2018-05-18T00:20:16.842Z,1019.24
2018-05-18T00:21:44.285Z,1019.28
2018-05-18T00:23:11.632Z,1019.30
2018-05-18T00:24:39.008Z,1019.28
2018-05-18T00:26:06.307Z,1019.27
2018-05-18T00:27:33.770Z,1019.25
2018-05-18T00:29:01.007Z,1019.24
2018-05-18T00:30:28.540Z,1019.28
2018-05-18T00:31:55.961Z,1019.29
2018-05-18T00:33:23.323Z,1019.35
2018-05-18T00:34:50.520Z,1019.41
2018-05-18T00:36:17.983Z,1019.42
2018-05-18T00:37:45.327Z,1019.42
2018-05-18T00:39:12.514Z,1019.39
2018-05-18T00:40:39.892Z,1019.38
2018-05-18T00:42:07.114Z,1019.39
2018-05-18T00:43:34.581Z,1019.41
2018-05-18T00:45:01.973Z,1019.43
2018-05-18T00:46:29.146Z,1019.43
2018-05-18T00:47:56.396Z,1019.39
2018-05-18T00:49:23.889Z,1019.38
2018-05-18T00:50:51.446Z,1019.37
2018-05-18T00:52:18.673Z,1019.34
2018-05-18T00:53:46.257Z,1019.35
2018-05-18T00:55:13.415Z,1019.38
2018-05-18T00:56:41.301Z,1019.44
2018-05-18T00:58:08.539Z,1019.47
2018-05-18T00:59:35.941Z,1019.50
2018-05-18T01:01:03.507Z,1019.52
2018-05-18T01:02:30.749Z,1019.51
2018-05-18T01:03:57.952Z,1019.50
2018-05-18T01:05:25.354Z,1019.50
2018-05-18T01:06:52.675Z,1019.51
2018-05-18T01:08:19.884Z,1019.52
2018-05-18T01:09:47.444Z,1019.53
2018-05-18T01:11:14.737Z,1019.55
2018-05-18T01:12:42.179Z,1019.54
2018-05-18T01:14:09.715Z,1019.55
2018-05-18T01:15:37.102Z,1019.53
2018-05-18T01:17:04.453Z,1019.53
2018-05-18T01:18:31.704Z,1019.49
2018-05-18T01:19:58.787Z,1019.52
2018-05-18T01:21:26.156Z,1019.53
2018-05-18T01:22:53.561Z,1019.52
2018-05-18T01:24:20.907Z,1019.51
2018-05-18T01:25:48.237Z,1019.50
2018-05-18T01:27:15.765Z,1019.49
2018-05-18T01:28:43.026Z,1019.51
2018-05-18T01:30:10.459Z,1019.51
2018-05-18T01:31:37.855Z,1019.54
2018-05-18T01:33:05.186Z,1019.53
2018-05-18T01:34:32.579Z,1019.51
2018-05-18T01:35:59.790Z,1019.47
2018-05-18T01:37:27.034Z,1019.45
2018-05-18T01:38:54.366Z,1019.43
2018-05-18T01:40:21.775Z,1019.44
2018-05-18T01:41:48.999Z,1019.46
2018-05-18T01:43:16.383Z,1019.50
2018-05-18T01:44:43.697Z,1019.54
2018-05-18T01:46:11.030Z,1019.62
2018-05-18T01:47:38.179Z,1019.65
2018-05-18T01:49:05.689Z,1019.66
2018-05-18T01:50:33.094Z,1019.65
2018-05-18T01:52:00.158Z,1019.64
2018-05-18T01:53:27.539Z,1019.63
2018-05-18T01:54:55.069Z,1019.66
2018-05-18T01:56:22.460Z,1019.66
2018-05-18T01:57:49.773Z,1019.69
2018-05-18T01:59:17.293Z,1019.71
2018-05-18T02:00:44.686Z,1019.70
2018-05-18T02:02:12.092Z,1019.66
2018-05-18T02:03:39.367Z,1019.63
2018-05-18T02:05:06.635Z,1019.59
2018-05-18T02:06:33.885Z,1019.56
2018-05-18T02:08:01.343Z,1019.56
2018-05-18T02:09:28.219Z,1019.56
2018-05-18T02:10:55.725Z,1019.59
2018-05-18T02:12:23.025Z,1019.62
2018-05-18T02:13:50.387Z,1019.62
2018-05-18T02:15:17.725Z,1019.62
2018-05-18T02:16:44.877Z,1019.58
2018-05-18T02:18:12.288Z,1019.55
2018-05-18T02:19:39.557Z,1019.52
2018-05-18T02:21:06.857Z,1019.49
2018-05-18T02:22:34.371Z,1019.47
2018-05-18T02:24:01.653Z,1019.46
2018-05-18T02:25:28.974Z,1019.45
2018-05-18T02:26:56.359Z,1019.46
2018-05-18T02:28:23.651Z,1019.52
2018-05-18T02:29:50.970Z,1019.54
2018-05-18T02:31:18.178Z,1019.58
2018-05-18T02:32:45.691Z,1019.56
2018-05-18T02:34:13.005Z,1019.57
2018-05-18T02:35:40.425Z,1019.59
2018-05-18T02:37:07.937Z,1019.52
2018-05-18T02:38:35.201Z,1019.48
2018-05-18T02:40:02.655Z,1019.47
2018-05-18T02:41:29.815Z,1019.52
2018-05-18T02:42:57.152Z,1019.54
2018-05-18T02:44:24.788Z,1019.57
2018-05-18T02:45:52.281Z,1019.58
2018-05-18T02:47:19.733Z,1019.57
2018-05-18T02:48:47.039Z,1019.57
2018-05-18T02:50:14.331Z,1019.59
2018-05-18T02:51:41.720Z,1019.61
2018-05-18T02:53:08.933Z,1019.60
2018-05-18T02:54:36.198Z,1019.57
2018-05-18T02:56:03.569Z,1019.53
2018-05-18T02:57:30.821Z,1019.53
2018-05-18T02:58:58.200Z,1019.57
2018-05-18T03:00:25.500Z,1019.60
2018-05-18T03:01:52.962Z,1019.68
2018-05-18T03:03:20.007Z,1019.72
2018-05-18T03:04:47.529Z,1019.73
2018-05-18T03:06:15.047Z,1019.71
2018-05-18T03:07:42.408Z,1019.70
2018-05-18T03:09:09.766Z,1019.68
2018-05-18T03:10:37.088Z,1019.67
2018-05-18T03:12:04.459Z,1019.67
2018-05-18T03:13:31.837Z,1019.72
2018-05-18T03:14:59.211Z,1019.80
2018-05-18T03:16:26.654Z,1019.82
2018-05-18T03:17:54.011Z,1019.82
2018-05-18T03:19:21.204Z,1019.80
2018-05-18T03:20:48.594Z,1019.82
2018-05-18T03:22:16.204Z,1019.84
2018-05-18T03:23:43.347Z,1019.81
2018-05-18T03:25:10.725Z,1019.74
2018-05-18T03:26:38.043Z,1019.72
2018-05-18T03:28:05.427Z,1019.75
2018-05-18T03:29:32.645Z,1019.79
2018-05-18T03:30:59.932Z,1019.82
2018-05-18T03:32:27.454Z,1019.86
2018-05-18T03:33:54.241Z,1019.85
2018-05-18T03:35:21.771Z,1019.86
2018-05-18T03:36:48.953Z,1019.84
2018-05-18T03:38:16.395Z,1019.82
2018-05-18T03:39:43.872Z,1019.79
2018-05-18T03:41:11.184Z,1019.77
2018-05-18T03:42:38.484Z,1019.79
2018-05-18T03:44:05.979Z,1019.79
2018-05-18T03:45:33.400Z,1019.81
2018-05-18T03:47:00.889Z,1019.86
2018-05-18T03:48:28.068Z,1019.88
2018-05-18T03:49:55.596Z,1019.89
2018-05-18T03:51:23.013Z,1019.87
2018-05-18T03:52:50.546Z,1019.88
2018-05-18T03:54:17.933Z,1019.82
2018-05-18T03:55:45.259Z,1019.79
2018-05-18T03:57:12.601Z,1019.80
2018-05-18T03:58:39.998Z,1019.80
2018-05-18T04:00:07.523Z,1019.87
2018-05-18T04:01:35.031Z,1019.89
2018-05-18T04:03:02.274Z,1019.92
2018-05-18T04:04:29.429Z,1019.94
2018-05-18T04:05:56.792Z,1019.93
2018-05-18T04:07:24.209Z,1019.93
2018-05-18T04:08:51.777Z,1019.92
2018-05-18T04:10:19.127Z,1019.90
2018-05-18T04:11:46.479Z,1019.91
2018-05-18T04:13:13.868Z,1019.95
2018-05-18T04:14:41.255Z,1019.97
2018-05-18T04:16:08.836Z,1019.97
2018-05-18T04:17:36.048Z,1019.98
2018-05-18T04:19:03.557Z,1019.99
2018-05-18T04:20:30.619Z,1019.97
2018-05-18T04:21:58.359Z,1019.95
2018-05-18T04:23:25.643Z,1019.95
2018-05-18T04:24:53.160Z,1019.95
2018-05-18T04:26:20.580Z,1019.94
2018-05-18T04:27:48.004Z,1019.95
2018-05-18T04:29:15.528Z,1019.99
2018-05-18T04:30:42.803Z,1019.98
2018-05-18T04:32:10.210Z,1019.97
2018-05-18T04:33:37.433Z,1020.00
2018-05-18T04:35:04.706Z,1020.01
2018-05-18T04:36:32.168Z,1019.99
2018-05-18T04:37:59.610Z,1020.01
2018-05-18T04:39:27.034Z,1020.02
2018-05-18T04:40:54.219Z,1020.02
2018-05-18T04:42:21.530Z,1020.03
2018-05-18T04:43:48.770Z,1020.04
2018-05-18T04:45:16.196Z,1020.03
2018-05-18T04:46:43.669Z,1020.01
2018-05-18T04:48:10.845Z,1019.99
2018-05-18T04:49:38.204Z,1020.00
2018-05-18T04:51:05.706Z,1020.00
2018-05-18T04:52:32.894Z,1020.02
2018-05-18T04:54:00.313Z,1020.03
2018-05-18T04:55:27.557Z,1020.03
2018-05-18T04:56:55.184Z,1020.05
2018-05-18T04:58:22.468Z,1020.06
2018-05-18T04:59:50.151Z,1020.06
2018-05-18T05:01:17.529Z,1020.09
2018-05-18T05:02:44.941Z,1020.11
2018-05-18T05:04:12.227Z,1020.10
2018-05-18T05:05:39.868Z,1020.06
2018-05-18T05:07:07.146Z,1020.07
2018-05-18T05:08:34.546Z,1020.07
2018-05-18T05:10:01.723Z,1020.07
2018-05-18T05:11:29.114Z,1020.07
2018-05-18T05:12:56.389Z,1020.05
2018-05-18T05:14:23.863Z,1020.06
2018-05-18T05:15:51.319Z,1020.06
2018-05-18T05:17:18.852Z,1020.06
2018-05-18T05:18:46.357Z,1020.09
2018-05-18T05:20:13.694Z,1020.11
2018-05-18T05:21:41.222Z,1020.13
2018-05-18T05:23:08.608Z,1020.14
2018-05-18T05:24:35.869Z,1020.16
2018-05-18T05:26:03.400Z,1020.17
2018-05-18T05:27:31.143Z,1020.14
2018-05-18T05:28:58.473Z,1020.16
2018-05-18T05:30:25.849Z,1020.18
2018-05-18T05:31:53.158Z,1020.17
2018-05-18T05:33:20.647Z,1020.17
2018-05-18T05:34:48.095Z,1020.17
2018-05-18T05:36:15.364Z,1020.19
2018-05-18T05:37:42.925Z,1020.19
2018-05-18T05:39:10.498Z,1020.23
2018-05-18T05:40:37.743Z,1020.26
2018-05-18T05:42:05.101Z,1020.26
2018-05-18T05:43:32.362Z,1020.27
2018-05-18T05:44:59.655Z,1020.28
2018-05-18T05:46:27.256Z,1020.27
2018-05-18T05:47:54.523Z,1020.28
2018-05-18T05:49:21.983Z,1020.28
2018-05-18T05:50:49.365Z,1020.25
2018-05-18T05:52:17.004Z,1020.24
2018-05-18T05:53:44.291Z,1020.27
2018-05-18T05:55:11.635Z,1020.25
2018-05-18T05:56:39.009Z,1020.27
2018-05-18T05:58:06.562Z,1020.27
2018-05-18T05:59:33.877Z,1020.28
2018-05-18T06:01:01.200Z,1020.24
2018-05-18T06:02:28.745Z,1020.23
2018-05-18T06:03:56.122Z,1020.21
2018-05-18T06:05:23.387Z,1020.25
2018-05-18T06:06:50.849Z,1020.27
2018-05-18T06:08:18.492Z,1020.28
2018-05-18T06:09:45.883Z,1020.30
2018-05-18T06:11:13.201Z,1020.30
2018-05-18T06:12:40.842Z,1020.31
2018-05-18T06:14:08.079Z,1020.30
2018-05-18T06:15:35.651Z,1020.31
2018-05-18T06:17:02.877Z,1020.30
2018-05-18T06:18:30.267Z,1020.34
2018-05-18T06:19:57.469Z,1020.34
2018-05-18T06:21:24.720Z,1020.38
2018-05-18T06:22:52.153Z,1020.41
2018-05-18T06:24:19.633Z,1020.46
2018-05-18T06:25:46.984Z,1020.46
2018-05-18T06:27:14.369Z,1020.47
2018-05-18T06:28:41.815Z,1020.49
2018-05-18T06:30:09.283Z,1020.49
2018-05-18T06:31:36.518Z,1020.51
2018-05-18T06:33:04.006Z,1020.51
2018-05-18T06:34:31.342Z,1020.54
2018-05-18T06:35:58.772Z,1020.58
2018-05-18T06:37:26.135Z,1020.59
2018-05-18T06:38:53.909Z,1020.62
2018-05-18T06:40:21.255Z,1020.65
2018-05-18T06:41:48.663Z,1020.68
2018-05-18T06:43:16.156Z,1020.70
2018-05-18T06:44:43.578Z,1020.68
2018-05-18T06:46:10.806Z,1020.70
2018-05-18T06:47:38.154Z,1020.72
2018-05-18T06:49:05.667Z,1020.72
2018-05-18T06:50:32.970Z,1020.75
2018-05-18T06:52:00.276Z,1020.73
2018-05-18T06:53:27.717Z,1020.74
2018-05-18T06:54:54.943Z,1020.77
2018-05-18T06:56:22.137Z,1020.81
2018-05-18T06:57:49.659Z,1020.79
2018-05-18T06:59:17.175Z,1020.80
2018-05-18T07:00:44.450Z,1020.81
2018-05-18T07:02:11.856Z,1020.83
2018-05-18T07:03:39.276Z,1020.82
2018-05-18T07:05:06.613Z,1020.85
2018-05-18T07:06:33.925Z,1020.88
2018-05-18T07:08:01.067Z,1020.89
2018-05-18T07:09:28.462Z,1020.88
2018-05-18T07:10:55.861Z,1020.82
2018-05-18T07:12:23.504Z,1020.82
2018-05-18T07:13:50.920Z,1020.81
2018-05-18T07:15:18.357Z,1020.82
2018-05-18T07:16:45.708Z,1020.84
2018-05-18T07:18:13.232Z,1020.89
2018-05-18T07:19:40.638Z,1020.90
2018-05-18T07:21:07.956Z,1020.92
2018-05-18T07:22:35.405Z,1020.92
2018-05-18T07:24:02.629Z,1020.96
2018-05-18T07:25:29.796Z,1020.98
2018-05-18T07:26:57.103Z,1020.99
2018-05-18T07:28:24.477Z,1021.00
2018-05-18T07:29:51.969Z,1021.05
2018-05-18T07:31:19.361Z,1021.10
2018-05-18T07:32:46.672Z,1021.12
2018-05-18T07:34:14.124Z,1021.13
2018-05-18T07:35:41.432Z,1021.14
2018-05-18T07:37:08.780Z,1021.11
2018-05-18T07:38:36.016Z,1021.11
2018-05-18T07:40:03.420Z,1021.14
2018-05-18T07:41:30.833Z,1021.14
2018-05-18T07:42:58.409Z,1021.17
2018-05-18T07:44:25.734Z,1021.16
2018-05-18T07:45:52.969Z,1021.19
2018-05-18T07:47:20.237Z,1021.19
2018-05-18T07:48:47.599Z,1021.21
2018-05-18T07:50:14.944Z,1021.21
2018-05-18T07:51:42.480Z,1021.21
2018-05-18T07:53:09.718Z,1021.23
2018-05-18T07:54:37.105Z,1021.23
2018-05-18T07:56:04.513Z,1021.26
2018-05-18T07:57:31.964Z,1021.26
2018-05-18T07:58:59.274Z,1021.26
2018-05-18T08:00:26.657Z,1021.26
2018-05-18T08:01:53.963Z,1021.24
2018-05-18T08:03:21.425Z,1021.24
2018-05-18T08:04:48.755Z,1021.26
2018-05-18T08:06:16.271Z,1021.27
2018-05-18T08:07:43.734Z,1021.34
2018-05-18T08:09:11.006Z,1021.34
2018-05-18T08:10:38.575Z,1021.38
2018-05-18T08:12:05.990Z,1021.39
2018-05-18T08:13:33.380Z,1021.42
2018-05-18T08:15:00.616Z,1021.42
2018-05-18T08:16:27.982Z,1021.42
2018-05-18T08:17:55.504Z,1021.44
2018-05-18T08:19:22.964Z,1021.44
2018-05-18T08:20:50.588Z,1021.45
2018-05-18T08:22:18.095Z,1021.47
2018-05-18T08:23:45.511Z,1021.42
2018-05-18T08:25:12.835Z,1021.42
2018-05-18T08:26:40.248Z,1021.42
2018-05-18T08:28:10.464Z,1021.42
2018-05-18T08:29:34.724Z,1021.45
2018-05-18T08:31:02.109Z,1021.46
2018-05-18T08:32:29.657Z,1021.45
2018-05-18T08:33:57.246Z,1021.46
2018-05-18T08:35:24.720Z,1021.46
2018-05-18T08:36:52.174Z,1021.48
2018-05-18T08:38:19.730Z,1021.49
2018-05-18T08:39:47.087Z,1021.54
2018-05-18T08:41:14.665Z,1021.53
2018-05-18T08:42:42.173Z,1021.56
2018-05-18T08:44:09.656Z,1021.56
2018-05-18T08:45:37.093Z,1021.58
2018-05-18T08:47:04.689Z,1021.58
2018-05-18T08:48:31.871Z,1021.57
2018-05-18T08:49:59.420Z,1021.60
2018-05-18T08:51:26.769Z,1021.62
2018-05-18T08:52:54.295Z,1021.65
2018-05-18T08:54:21.892Z,1021.64
2018-05-18T08:55:49.328Z,1021.63
2018-05-18T08:57:16.661Z,1021.66
2018-05-18T08:58:44.247Z,1021.65
2018-05-18T09:00:11.347Z,1021.66
2018-05-18T09:01:38.816Z,1021.69
2018-05-18T09:03:06.297Z,1021.72
2018-05-18T09:04:33.807Z,1021.72
2018-05-18T09:06:01.148Z,1021.73
2018-05-18T09:07:28.416Z,1021.76
2018-05-18T09:08:56.115Z,1021.77
2018-05-18T09:10:23.275Z,1021.78
2018-05-18T09:11:50.879Z,1021.79
2018-05-18T09:13:18.105Z,1021.79
2018-05-18T09:14:45.487Z,1021.80
2018-05-18T09:16:12.843Z,1021.84
2018-05-18T09:17:40.152Z,1021.82
2018-05-18T09:19:07.550Z,1021.83
2018-05-18T09:20:34.994Z,1021.83
2018-05-18T09:22:02.366Z,1021.84
2018-05-18T09:23:29.529Z,1021.84
2018-05-18T09:24:56.910Z,1021.88
2018-05-18T09:26:24.514Z,1021.86
2018-05-18T09:27:51.635Z,1021.87
2018-05-18T09:29:19.162Z,1021.89
2018-05-18T09:30:46.752Z,1021.90
2018-05-18T09:32:14.080Z,1021.89
2018-05-18T09:33:41.381Z,1021.87
2018-05-18T09:35:08.868Z,1021.88
2018-05-18T09:36:36.242Z,1021.87
2018-05-18T09:38:03.728Z,1021.88
2018-05-18T09:39:31.085Z,1021.85
2018-05-18T09:40:58.563Z,1021.83
2018-05-18T09:42:25.933Z,1021.83
2018-05-18T09:43:53.281Z,1021.82
2018-05-18T09:45:20.687Z,1021.84
2018-05-18T09:46:48.282Z,1021.88
2018-05-18T09:48:15.566Z,1021.90
2018-05-18T09:49:43.217Z,1021.91
2018-05-18T09:51:10.502Z,1021.90
2018-05-18T09:52:37.898Z,1021.94
2018-05-18T09:54:05.437Z,1021.92
2018-05-18T09:55:32.959Z,1021.91
2018-05-18T09:56:59.873Z,1021.89
2018-05-18T09:58:27.287Z,1021.90
2018-05-18T09:59:54.742Z,1021.89
2018-05-18T10:01:22.170Z,1021.89
2018-05-18T10:02:49.652Z,1021.91
2018-05-18T10:04:16.955Z,1021.91
2018-05-18T10:05:44.291Z,1021.94
2018-05-18T10:07:11.797Z,1021.93
2018-05-18T10:08:39.055Z,1021.93
2018-05-18T10:10:06.355Z,1021.90
2018-05-18T10:11:34.006Z,1021.91
2018-05-18T10:13:00.915Z,1021.90
2018-05-18T10:14:28.274Z,1021.90
2018-05-18T10:15:55.939Z,1021.89
2018-05-18T10:17:23.140Z,1021.93
2018-05-18T10:18:50.696Z,1021.94
2018-05-18T10:20:18.040Z,1021.93
2018-05-18T10:21:45.463Z,1021.94
2018-05-18T10:23:13.115Z,1021.95
2018-05-18T10:24:40.654Z,1021.97
2018-05-18T10:26:08.087Z,1021.99
2018-05-18T10:27:35.570Z,1021.98
2018-05-18T10:29:02.987Z,1022.00
2018-05-18T10:30:30.337Z,1022.04
2018-05-18T10:31:57.963Z,1022.02
2018-05-18T10:33:25.461Z,1022.04
2018-05-18T10:34:52.911Z,1022.05
2018-05-18T10:36:20.483Z,1022.10
2018-05-18T10:37:48.091Z,1022.10
2018-05-18T10:39:15.472Z,1022.12
2018-05-18T10:40:43.097Z,1022.13
2018-05-18T10:42:10.486Z,1022.13
2018-05-18T10:43:38.072Z,1022.10
2018-05-18T10:45:05.341Z,1022.12
2018-05-18T10:46:32.670Z,1022.10
2018-05-18T10:47:59.929Z,1022.07
2018-05-18T10:49:27.653Z,1022.06
2018-05-18T10:50:54.896Z,1022.06
2018-05-18T10:52:22.374Z,1022.03
2018-05-18T10:53:49.787Z,1022.04
2018-05-18T10:55:17.197Z,1022.00
2018-05-18T10:56:44.575Z,1021.99
2018-05-18T10:58:12.069Z,1022.00
2018-05-18T10:59:39.319Z,1021.99
2018-05-18T11:01:06.840Z,1021.98
2018-05-18T11:02:34.158Z,1022.01
2018-05-18T11:04:01.535Z,1021.99
2018-05-18T11:05:29.114Z,1021.99
2018-05-18T11:06:56.617Z,1021.99
2018-05-18T11:08:24.233Z,1021.96
2018-05-18T11:09:51.745Z,1021.99
2018-05-18T11:11:19.403Z,1022.00
2018-05-18T11:12:46.908Z,1022.00
2018-05-18T11:14:14.395Z,1022.01
2018-05-18T11:15:41.892Z,1021.99
2018-05-18T11:17:09.459Z,1022.00
2018-05-18T11:18:36.980Z,1022.00
2018-05-18T11:20:04.327Z,1022.01
2018-05-18T11:21:32.537Z,1022.01
2018-05-18T11:22:59.068Z,1022.02
2018-05-18T11:24:26.471Z,1022.03
2018-05-18T11:25:54.034Z,1022.04
2018-05-18T11:27:21.336Z,1022.05
2018-05-18T11:28:48.831Z,1022.08
2018-05-18T11:30:16.372Z,1022.08
2018-05-18T11:31:43.862Z,1022.06
2018-05-18T11:33:11.439Z,1022.07
2018-05-18T11:34:38.865Z,1022.07
2018-05-18T11:36:06.301Z,1022.05
2018-05-18T11:37:33.727Z,1022.05
2018-05-18T11:39:01.150Z,1022.06
2018-05-18T11:40:28.359Z,1022.07
2018-05-18T11:41:55.942Z,1022.09
2018-05-18T11:43:23.461Z,1022.08
2018-05-18T11:44:50.873Z,1022.07
2018-05-18T11:46:18.368Z,1022.07
2018-05-18T11:47:45.768Z,1022.07
2018-05-18T11:49:13.303Z,1022.05
2018-05-18T11:50:40.805Z,1022.05
2018-05-18T11:52:08.216Z,1022.05
2018-05-18T11:53:35.845Z,1022.06
2018-05-18T11:55:02.901Z,1022.08
2018-05-18T11:56:30.084Z,1022.09
2018-05-18T11:57:57.626Z,1022.09
2018-05-18T11:59:24.896Z,1022.09
2018-05-18T12:00:52.541Z,1022.06
2018-05-18T12:02:19.987Z,1022.06
2018-05-18T12:03:47.206Z,1022.04
2018-05-18T12:05:14.851Z,1022.04
2018-05-18T12:06:42.244Z,1022.02
2018-05-18T12:08:09.678Z,1022.00
2018-05-18T12:09:37.066Z,1022.00
2018-05-18T12:11:04.522Z,1021.99
2018-05-18T12:12:31.985Z,1022.00
2018-05-18T12:13:59.383Z,1022.00
2018-05-18T12:15:26.815Z,1022.00
2018-05-18T12:16:54.245Z,1021.99
2018-05-18T12:18:21.593Z,1021.99
2018-05-18T12:19:49.136Z,1021.98
2018-05-18T12:21:16.405Z,1021.98
2018-05-18T12:22:43.856Z,1021.97
2018-05-18T12:24:10.962Z,1021.99
2018-05-18T12:25:38.404Z,1021.97
2018-05-18T12:27:05.739Z,1021.98
2018-05-18T12:28:33.156Z,1021.97
2018-05-18T12:30:00.733Z,1021.97
2018-05-18T12:31:28.320Z,1021.95
2018-05-18T12:32:55.844Z,1021.94
2018-05-18T12:34:23.241Z,1021.93
2018-05-18T12:35:50.713Z,1021.92
2018-05-18T12:37:18.197Z,1021.94
2018-05-18T12:38:45.595Z,1021.95
2018-05-18T12:40:13.070Z,1021.96
2018-05-18T12:41:40.496Z,1021.96
2018-05-18T12:43:07.988Z,1021.98
2018-05-18T12:44:35.613Z,1021.96
2018-05-18T12:46:03.207Z,1021.98
2018-05-18T12:47:30.421Z,1022.01
2018-05-18T12:48:57.758Z,1022.00
2018-05-18T12:50:25.383Z,1022.00
2018-05-18T12:51:52.845Z,1022.00
2018-05-18T12:53:20.241Z,1022.00
2018-05-18T12:54:47.677Z,1022.02
2018-05-18T12:56:15.270Z,1022.07
2018-05-18T12:57:42.918Z,1022.07
2018-05-18T12:59:10.292Z,1022.06
2018-05-18T13:00:37.777Z,1022.07
2018-05-18T13:02:05.190Z,1022.09
2018-05-18T13:03:32.565Z,1022.08
2018-05-18T13:04:59.658Z,1022.07
2018-05-18T13:06:27.224Z,1022.07
2018-05-18T13:07:54.684Z,1022.06
2018-05-18T13:09:22.101Z,1022.06
2018-05-18T13:10:49.583Z,1022.06
2018-05-18T13:12:17.180Z,1022.03
2018-05-18T13:13:44.623Z,1022.02
2018-05-18T13:15:12.129Z,1022.04
2018-05-18T13:16:39.766Z,1022.02
2018-05-18T13:18:07.103Z,1022.02
2018-05-18T13:19:34.628Z,1022.02
2018-05-18T13:21:01.970Z,1022.03
2018-05-18T13:22:29.377Z,1022.03
2018-05-18T13:23:56.804Z,1022.04
2018-05-18T13:25:24.430Z,1022.06
2018-05-18T13:26:51.957Z,1022.06
2018-05-18T13:28:19.366Z,1022.08
2018-05-18T13:29:46.702Z,1022.10
2018-05-18T13:31:14.053Z,1022.07
2018-05-18T13:32:41.311Z,1022.09
2018-05-18T13:34:08.948Z,1022.10
2018-05-18T13:35:36.274Z,1022.09
2018-05-18T13:37:03.445Z,1022.10
2018-05-18T13:38:30.767Z,1022.10
2018-05-18T13:39:58.006Z,1022.11
2018-05-18T13:41:25.392Z,1022.12
2018-05-18T13:42:52.878Z,1022.14
2018-05-18T13:44:20.511Z,1022.12
2018-05-18T13:45:47.878Z,1022.13
2018-05-18T13:47:15.496Z,1022.13
2018-05-18T13:48:43.014Z,1022.12
2018-05-18T13:50:10.602Z,1022.15
2018-05-18T13:51:38.035Z,1022.14
2018-05-18T13:53:05.515Z,1022.15
2018-05-18T13:54:32.912Z,1022.15
2018-05-18T13:56:00.370Z,1022.15
2018-05-18T13:57:27.920Z,1022.14
2018-05-18T13:58:55.480Z,1022.16
2018-05-18T14:00:22.845Z,1022.16
2018-05-18T14:01:50.989Z,1022.16
2018-05-18T14:03:17.406Z,1022.15
2018-05-18T14:04:44.885Z,1022.15
2018-05-18T14:06:12.531Z,1022.14
2018-05-18T14:07:39.924Z,1022.12
2018-05-18T14:09:07.428Z,1022.14
2018-05-18T14:10:35.082Z,1022.14
2018-05-18T14:12:02.595Z,1022.17
2018-05-18T14:13:29.798Z,1022.21
2018-05-18T14:14:57.306Z,1022.19
2018-05-18T14:16:24.654Z,1022.20
2018-05-18T14:17:52.015Z,1022.20
2018-05-18T14:19:19.463Z,1022.19
2018-05-18T14:20:46.967Z,1022.18
2018-05-18T14:22:14.447Z,1022.18
2018-05-18T14:23:41.855Z,1022.18
2018-05-18T14:25:09.340Z,1022.19
2018-05-18T14:26:36.853Z,1022.15
2018-05-18T14:28:04.195Z,1022.16
2018-05-18T14:29:31.499Z,1022.16
2018-05-18T14:30:58.997Z,1022.16
2018-05-18T14:32:26.396Z,1022.16
2018-05-18T14:33:53.879Z,1022.14
2018-05-18T14:35:21.421Z,1022.15
2018-05-18T14:36:48.776Z,1022.12
2018-05-18T14:38:16.279Z,1022.13
2018-05-18T14:39:43.903Z,1022.11
2018-05-18T14:41:11.198Z,1022.11
2018-05-18T14:42:38.643Z,1022.11
2018-05-18T14:44:06.026Z,1022.11
2018-05-18T14:45:33.513Z,1022.10
2018-05-18T14:47:00.959Z,1022.09
2018-05-18T14:48:28.384Z,1022.08
2018-05-18T14:49:55.865Z,1022.10
2018-05-18T14:51:23.427Z,1022.12
2018-05-18T14:52:50.826Z,1022.10
2018-05-18T14:54:18.343Z,1022.13
2018-05-18T14:55:45.845Z,1022.10
2018-05-18T14:57:13.355Z,1022.09
2018-05-18T14:58:40.778Z,1022.09
2018-05-18T15:00:08.116Z,1022.08
2018-05-18T15:01:35.606Z,1022.09
2018-05-18T15:03:02.974Z,1022.08
2018-05-18T15:04:30.410Z,1022.07
2018-05-18T15:05:57.667Z,1022.04
2018-05-18T15:07:25.084Z,1022.04
2018-05-18T15:08:52.562Z,1022.03
2018-05-18T15:10:20.116Z,1022.03
2018-05-18T15:11:47.416Z,1022.00
2018-05-18T15:13:14.966Z,1022.03
2018-05-18T15:14:42.555Z,1022.04
2018-05-18T15:16:10.072Z,1022.04
2018-05-18T15:17:37.699Z,1022.05
2018-05-18T15:19:04.972Z,1022.06
2018-05-18T15:20:32.240Z,1022.07
2018-05-18T15:22:00.007Z,1022.11
2018-05-18T15:23:27.397Z,1022.12
2018-05-18T15:24:54.961Z,1022.15
2018-05-18T15:26:22.454Z,1022.16
2018-05-18T15:27:49.983Z,1022.16
2018-05-18T15:29:17.458Z,1022.17
2018-05-18T15:30:44.935Z,1022.19
2018-05-18T15:32:12.507Z,1022.16
2018-05-18T15:33:39.971Z,1022.16
2018-05-18T15:35:07.387Z,1022.19
2018-05-18T15:36:34.932Z,1022.18
2018-05-18T15:38:02.519Z,1022.19
2018-05-18T15:39:29.598Z,1022.18
2018-05-18T15:40:57.169Z,1022.19
2018-05-18T15:42:24.483Z,1022.21
2018-05-18T15:43:51.793Z,1022.24
2018-05-18T15:45:19.117Z,1022.27
2018-05-18T15:46:46.834Z,1022.28
2018-05-18T15:48:14.112Z,1022.28
2018-05-18T15:49:41.536Z,1022.31
2018-05-18T15:51:09.111Z,1022.34
2018-05-18T15:52:36.513Z,1022.35
2018-05-18T15:54:03.948Z,1022.34
2018-05-18T15:55:31.329Z,1022.33
2018-05-18T15:56:58.699Z,1022.30
2018-05-18T15:58:26.089Z,1022.31
2018-05-18T15:59:53.542Z,1022.35
2018-05-18T16:01:21.078Z,1022.36
2018-05-18T16:02:48.279Z,1022.38
2018-05-18T16:04:15.626Z,1022.38
2018-05-18T16:05:43.128Z,1022.40
2018-05-18T16:07:10.664Z,1022.41
2018-05-18T16:08:38.060Z,1022.42
2018-05-18T16:10:05.458Z,1022.42
2018-05-18T16:11:32.867Z,1022.45
2018-05-18T16:13:00.315Z,1022.48
2018-05-18T16:14:27.694Z,1022.49
2018-05-18T16:15:55.120Z,1022.50
2018-05-18T16:17:22.642Z,1022.51
2018-05-18T16:18:49.973Z,1022.52
2018-05-18T16:20:17.410Z,1022.52
2018-05-18T16:21:45.032Z,1022.50
2018-05-18T16:23:12.585Z,1022.53
2018-05-18T16:24:40.031Z,1022.54
2018-05-18T16:26:07.450Z,1022.52
2018-05-18T16:27:34.692Z,1022.52
2018-05-18T16:29:02.109Z,1022.52
2018-05-18T16:30:29.574Z,1022.52
2018-05-18T16:31:57.051Z,1022.53
2018-05-18T16:33:24.655Z,1022.52
2018-05-18T16:34:52.012Z,1022.52
2018-05-18T16:36:19.475Z,1022.52
2018-05-18T16:37:46.949Z,1022.51
2018-05-18T16:39:14.482Z,1022.51
2018-05-18T16:40:41.835Z,1022.51
2018-05-18T16:42:09.242Z,1022.51
2018-05-18T16:43:36.501Z,1022.53
2018-05-18T16:45:03.898Z,1022.53
2018-05-18T16:46:31.394Z,1022.54
2018-05-18T16:47:58.688Z,1022.55
2018-05-18T16:49:26.216Z,1022.55
2018-05-18T16:50:53.499Z,1022.55
2018-05-18T16:52:20.858Z,1022.57
2018-05-18T16:53:48.458Z,1022.59
2018-05-18T16:55:15.793Z,1022.62
2018-05-18T16:56:43.325Z,1022.64
2018-05-18T16:58:10.971Z,1022.63
2018-05-18T16:59:38.318Z,1022.63
2018-05-18T17:01:05.560Z,1022.64
2018-05-18T17:02:32.549Z,1022.65
2018-05-18T17:03:59.764Z,1022.63
2018-05-18T17:05:27.170Z,1022.65
2018-05-18T17:06:54.595Z,1022.66
2018-05-18T17:08:21.944Z,1022.65
2018-05-18T17:09:49.119Z,1022.65
2018-05-18T17:11:16.673Z,1022.65
2018-05-18T17:12:43.978Z,1022.63
2018-05-18T17:14:11.495Z,1022.64
2018-05-18T17:15:38.628Z,1022.65
2018-05-18T17:17:06.030Z,1022.65
2018-05-18T17:18:33.493Z,1022.66
2018-05-18T17:20:01.182Z,1022.70
2018-05-18T17:21:28.554Z,1022.68
2018-05-18T17:22:55.931Z,1022.69
2018-05-18T17:24:23.495Z,1022.71
2018-05-18T17:25:51.304Z,1022.70
2018-05-18T17:27:18.694Z,1022.68
2018-05-18T17:28:46.196Z,1022.67
2018-05-18T17:30:13.567Z,1022.68
2018-05-18T17:31:41.009Z,1022.69
2018-05-18T17:33:08.622Z,1022.70
2018-05-18T17:34:36.107Z,1022.71
2018-05-18T17:36:03.392Z,1022.72
2018-05-18T17:37:30.823Z,1022.75